Disclaimer

Please do not use the information listed here in-flight or in-navigation, as they are not provided to us by the airports but are provided by volunteers, so they might be outdated.

Search


Regions


Airport information page

No radio frequency information is available.

Airport informations:
Latitude: 55° 26' 14.00" N
Longitude: 005° 41' 11.00" W
Elevation: 42 feet - 13 meters
Operating hours: Remarks
Operating agency: Civil government, landing fees and diplomatic clearance may be required
Timezone: UTC 0(+1DT)
Fuel: Jet A1+, Jet A1 with icing inhibitor.

100/130 MIL Spec, low lead, aviation gasoline (BLUE)

Runway information:
11/29 - 10003 x 151 feet< - >3049 x 46 meters

Recent METARs:
EGEC 201350Z 07017KT 9999 FEW027 07/03 Q1019
EGEC 201420Z 07016KT 9999 FEW019 SCT027 07/03 Q1018
EGEC 201450Z 06019G29KT 9999 FEW015 SCT030 07/02 Q1018

Airport on the map: